Time;durP1;ratioP1;P1;durP2;ratioP2;P2;SDS_P1;SDS_P2;PMS_P1;PMS_P2;Temp;Humidity;BMP_temperature;BMP_pressure;BME280_temperature;BME280_humidity;BME280_pressure;Samples;Min_cycle;Max_cycle;Signal;HPM_P1;HPM_P2
2023/07/26 00:01:34;;;;;;;10.07;5.35;;;;;;;26.82;nan;62514.72;5072737;28;20242;-63
2023/07/26 00:03:59;;;;;;;10.43;5.53;;;;;;;26.42;nan;62452.69;5073499;28;20166;-63
2023/07/26 00:06:25;;;;;;;9.85;5.20;;;;;;;26.31;nan;62394.09;5073585;28;20226;-63
2023/07/26 00:08:52;;;;;;;8.43;5.00;;;;;;;26.45;nan;62414.22;5073414;28;20660;-63
2023/07/26 00:11:18;;;;;;;8.18;4.90;;;;;;;26.24;nan;62485.69;5072705;28;20181;-63
2023/07/26 00:13:43;;;;;;;8.70;5.47;;;;;;;26.25;nan;62402.97;5072966;28;20170;-62
2023/07/26 00:16:09;;;;;;;8.63;5.35;;;;;;;25.98;nan;62476.31;5073352;28;20180;-63
2023/07/26 00:18:34;;;;;;;7.63;5.18;;;;;;;26.26;nan;62529.34;5072986;28;20253;-63
2023/07/26 00:21:00;;;;;;;7.57;4.90;;;;;;;26.29;nan;62482.97;5072736;28;20170;-62
2023/07/26 00:23:25;;;;;;;8.70;5.18;;;;;;;26.05;nan;62342.88;5072669;28;20287;-63
2023/07/26 00:25:51;;;;;;;9.15;5.07;;;;;;;;;;5072828;28;20174;-63
2023/07/26 00:28:16;;;;;;;9.02;5.45;;;;;;;26.04;nan;62286.72;5072632;28;20648;-63
2023/07/26 00:30:41;;;;;;;9.05;5.40;;;;;;;26.23;nan;62421.66;5072178;28;20178;-63
2023/07/26 00:33:07;;;;;;;10.20;5.40;;;;;;;26.18;nan;62381.28;5072502;28;20173;-62
2023/07/26 00:35:39;;;;;;;10.73;5.30;;;;;;;26.11;nan;62373.31;5072378;28;20170;-62
2023/07/26 00:38:04;;;;;;;8.52;5.03;;;;;;;25.82;nan;62427.16;5072519;28;20158;-62
2023/07/26 00:40:30;;;;;;;9.13;5.28;;;;;;;25.99;nan;62436.13;5072929;28;20203;-62
2023/07/26 00:42:55;;;;;;;8.45;5.30;;;;;;;26.05;nan;62440.38;5072220;28;20588;-62
2023/07/26 00:45:20;;;;;;;8.18;5.15;;;;;;;26.11;nan;62386.97;5071869;28;20177;-62
2023/07/26 00:47:46;;;;;;;9.20;6.10;;;;;;;26.14;nan;62347.91;5072525;28;20257;-63
2023/07/26 00:50:12;;;;;;;8.13;4.78;;;;;;;;;;5072034;28;20616;-63
2023/07/26 00:52:38;;;;;;;10.13;5.55;;;;;;;25.91;nan;62463.66;5072390;28;20252;-62
2023/07/26 00:55:04;;;;;;;13.63;5.95;;;;;;;25.84;nan;62314.25;5072374;28;20178;-62
2023/07/26 00:57:31;;;;;;;7.50;4.93;;;;;;;26.05;nan;62445.03;5072196;28;20260;-63
2023/07/26 00:59:57;;;;;;;11.60;5.68;;;;;;;25.84;nan;62463.50;5072237;28;20180;-62
2023/07/26 01:02:22;;;;;;;9.07;5.47;;;;;;;25.83;nan;62290.13;5070495;28;20296;-62
2023/07/26 01:04:48;;;;;;;8.98;5.10;;;;;;;26.03;nan;62351.06;5071932;28;20302;-62
2023/07/26 01:08:06;;;;;;;8.65;5.38;;;;;;;25.86;nan;62395.66;5070500;28;20177;-62
2023/07/26 01:10:49;;;;;;;10.43;5.22;;;;;;;25.82;nan;62409.41;5012598;28;20684;-62
2023/07/26 01:13:35;;;;;;;7.85;5.18;;;;;;;25.86;nan;62329.63;5071720;28;20190;-62
2023/07/26 01:16:01;;;;;;;10.65;5.88;;;;;;;25.84;nan;62338.41;5071470;28;20621;-62
2023/07/26 01:18:27;;;;;;;10.18;5.63;;;;;;;25.70;nan;62325.03;5071452;28;20170;-61
2023/07/26 01:20:52;;;;;;;11.68;5.70;;;;;;;25.43;nan;62221.47;5070138;28;20260;-62
2023/07/26 01:23:18;;;;;;;9.50;5.68;;;;;;;25.42;nan;62389.88;5069833;28;20204;-62
2023/07/26 01:25:43;;;;;;;9.38;5.78;;;;;;;25.67;nan;62326.25;5068873;28;20182;-62
2023/07/26 01:28:08;;;;;;;10.10;5.78;;;;;;;25.47;nan;62484.56;5069996;28;20757;-62
2023/07/26 01:30:35;;;;;;;10.75;5.60;;;;;;;25.37;nan;62256.53;5069702;28;20173;-62
2023/07/26 01:33:07;;;;;;;10.65;5.68;;;;;;;24.78;nan;62304.28;5069562;28;20170;-62
2023/07/26 01:35:35;;;;;;;11.80;6.40;;;;;;;24.97;nan;62370.44;5070775;28;20185;-62
2023/07/26 01:38:01;;;;;;;8.40;5.38;;;;;;;25.57;nan;62280.84;5071909;28;20252;-61
2023/07/26 01:40:27;;;;;;;9.52;5.82;;;;;;;25.68;nan;62304.41;5072510;28;20162;-62
2023/07/26 01:42:53;;;;;;;9.18;5.68;;;;;;;25.64;nan;62280.97;5071712;28;20205;-62
2023/07/26 01:45:19;;;;;;;11.38;5.72;;;;;;;25.30;nan;62272.09;5072082;28;20178;-62
2023/07/26 01:47:44;;;;;;;11.18;5.70;;;;;;;25.53;nan;62342.25;5071511;28;20204;-62
2023/07/26 01:50:10;;;;;;;15.40;6.43;;;;;;;25.42;nan;62377.38;5071638;28;20189;-62
2023/07/26 01:52:35;;;;;;;10.30;5.97;;;;;;;25.44;nan;62560.22;5072352;28;20178;-63
2023/07/26 01:55:01;;;;;;;9.07;5.60;;;;;;;25.18;nan;62352.00;5071497;28;20166;-63
2023/07/26 01:57:27;;;;;;;8.80;5.43;;;;;;;25.38;nan;62291.13;5071610;28;20184;-62
2023/07/26 01:59:53;;;;;;;9.30;5.60;;;;;;;25.30;nan;62363.66;5071836;28;20171;-62
2023/07/26 02:02:18;;;;;;;9.02;6.15;;;;;;;25.09;nan;62331.84;5071205;28;20251;-62
2023/07/26 02:04:44;;;;;;;9.63;5.43;;;;;;;25.00;nan;62322.13;5071580;28;20222;-62
2023/07/26 02:07:09;;;;;;;8.75;5.65;;;;;;;25.18;nan;62208.69;5071380;28;20657;-62
2023/07/26 02:09:35;;;;;;;10.27;5.65;;;;;;;25.32;nan;62271.75;5071396;28;20166;-62
2023/07/26 02:12:01;;;;;;;10.00;5.95;;;;;;;24.94;nan;62233.66;5071424;28;20555;-62
2023/07/26 02:14:26;;;;;;;9.60;6.28;;;;;;;24.96;nan;62235.94;5071653;28;20170;-62
2023/07/26 02:16:52;;;;;;;9.27;5.63;;;;;;;25.17;nan;62351.44;5071439;28;20249;-62
2023/07/26 02:19:17;;;;;;;8.40;5.10;;;;;;;24.99;nan;62239.34;5071325;28;20174;-62
2023/07/26 02:21:43;;;;;;;8.90;5.70;;;;;;;25.20;nan;62234.50;5071265;28;20189;-63
2023/07/26 02:24:08;;;;;;;7.97;5.38;;;;;;;24.95;nan;62310.63;5071216;28;20719;-62
2023/07/26 02:26:33;;;;;;;11.85;5.65;;;;;;;24.90;nan;62200.91;5071079;28;20242;-61
2023/07/26 02:28:59;;;;;;;10.48;5.53;;;;;;;25.28;nan;62334.66;5071577;28;20171;-62
2023/07/26 02:31:24;;;;;;;10.65;5.88;;;;;;;25.28;nan;62564.88;5071512;28;20170;-61
2023/07/26 02:33:50;;;;;;;9.95;6.18;;;;;;;25.03;nan;62231.41;5071264;28;20308;-63
2023/07/26 02:36:15;;;;;;;9.00;5.57;;;;;;;25.33;nan;62272.91;5071189;28;20209;-62
2023/07/26 02:38:40;;;;;;;10.50;6.25;;;;;;;25.14;nan;62188.47;5073853;28;20166;-62
2023/07/26 02:41:06;;;;;;;8.27;5.22;;;;;;;25.26;nan;62291.06;5074947;28;20226;-62
2023/07/26 02:43:31;;;;;;;8.07;5.70;;;;;;;25.29;nan;62252.66;5074649;28;20688;-62
2023/07/26 02:45:56;;;;;;;10.48;5.60;;;;;;;24.96;nan;62366.69;5074549;28;20177;-62
2023/07/26 02:48:22;;;;;;;9.90;5.70;;;;;;;24.84;nan;62318.94;5074838;28;20901;-61
2023/07/26 02:50:47;;;;;;;9.40;5.63;;;;;;;25.05;nan;62348.75;5074959;28;20177;-62
2023/07/26 02:53:12;;;;;;;9.75;5.80;;;;;;;25.12;nan;62287.59;5074806;28;20170;-62
2023/07/26 02:55:42;;;;;;;9.85;6.28;;;;;;;;;;5074476;28;20359;-63
2023/07/26 02:58:07;;;;;;;11.52;5.90;;;;;;;24.84;nan;62188.22;5074076;28;20177;-61
2023/07/26 03:00:32;;;;;;;11.70;6.28;;;;;;;25.07;nan;62290.31;5074544;28;20180;-62
2023/07/26 03:02:58;;;;;;;10.45;6.07;;;;;;;24.98;nan;62264.94;5073880;28;20562;-62
2023/07/26 03:05:23;;;;;;;11.18;6.05;;;;;;;24.97;nan;62205.69;5074109;28;20217;-62
2023/07/26 03:07:48;;;;;;;9.23;5.88;;;;;;;24.62;nan;62291.78;5074263;28;20173;-62
2023/07/26 03:10:14;;;;;;;11.68;5.68;;;;;;;24.59;nan;62074.66;5074433;28;20177;-62
2023/07/26 03:12:39;;;;;;;10.98;6.10;;;;;;;24.61;nan;62173.06;5074129;28;20204;-63
2023/07/26 03:15:05;;;;;;;10.18;5.93;;;;;;;24.86;nan;62187.91;5075951;28;20186;-63
2023/07/26 03:17:31;;;;;;;9.93;5.47;;;;;;;24.92;nan;62250.25;5089478;28;20170;-62
2023/07/26 03:19:56;;;;;;;10.13;5.38;;;;;;;25.05;nan;62518.19;5074303;28;20174;-62
2023/07/26 03:22:22;;;;;;;11.07;5.82;;;;;;;25.10;nan;62393.13;5083540;28;20695;-62
2023/07/26 03:24:47;;;;;;;8.48;5.78;;;;;;;24.92;nan;62200.00;5094239;28;20169;-63
2023/07/26 03:27:13;;;;;;;9.93;5.70;;;;;;;24.97;nan;62158.63;5094125;28;20173;-63
2023/07/26 03:29:38;;;;;;;10.55;5.93;;;;;;;25.18;nan;62574.91;5094152;28;20166;-63
2023/07/26 03:32:04;;;;;;;9.40;6.28;;;;;;;25.27;nan;62265.47;5093621;28;20177;-62
2023/07/26 03:34:29;;;;;;;13.13;6.45;;;;;;;25.18;nan;62249.97;5093987;28;20188;-62
2023/07/26 03:36:54;;;;;;;12.07;6.30;;;;;;;25.55;nan;62624.63;5094012;28;20173;-62
2023/07/26 03:39:20;;;;;;;10.23;6.00;;;;;;;25.50;nan;62362.38;5093902;28;20176;-62
2023/07/26 03:41:45;;;;;;;10.02;5.72;;;;;;;25.43;nan;62383.19;5093418;28;20177;-62
2023/07/26 03:44:11;;;;;;;13.13;5.80;;;;;;;25.50;nan;62407.44;5094098;28;20169;-63
2023/07/26 03:46:36;;;;;;;10.80;5.90;;;;;;;25.53;nan;62319.25;5093300;28;20192;-62
2023/07/26 03:49:02;;;;;;;11.60;5.93;;;;;;;25.76;nan;62667.00;5093397;28;20170;-61
2023/07/26 03:51:27;;;;;;;11.90;5.80;;;;;;;25.43;nan;62419.81;5093316;28;20534;-63
2023/07/26 03:53:52;;;;;;;10.43;5.90;;;;;;;25.69;nan;62344.25;5093642;28;20173;-62
2023/07/26 03:56:18;;;;;;;9.88;5.47;;;;;;;25.45;nan;62312.19;5093643;28;20169;-61
2023/07/26 03:58:43;;;;;;;11.30;5.70;;;;;;;25.69;nan;62422.78;5093269;28;20201;-63
2023/07/26 04:01:08;;;;;;;9.82;5.50;;;;;;;25.41;nan;62172.13;5093244;28;20172;-63
2023/07/26 04:03:34;;;;;;;8.75;5.15;;;;;;;25.46;nan;62272.03;5093314;28;20264;-62
2023/07/26 04:05:59;;;;;;;9.18;5.05;;;;;;;25.65;nan;62293.16;5093430;28;20222;-60
2023/07/26 04:08:26;;;;;;;10.48;5.97;;;;;;;25.61;nan;62314.19;5075707;28;20230;-60
2023/07/26 04:10:51;;;;;;;7.80;5.22;;;;;;;25.58;nan;62630.66;5059356;28;20589;-65
2023/07/26 04:13:17;;;;;;;9.02;5.90;;;;;;;25.57;nan;62314.88;5072352;28;20173;-61
2023/07/26 04:15:42;;;;;;;10.30;5.80;;;;;;;25.45;nan;62317.41;5071862;28;20174;-64
2023/07/26 04:18:07;;;;;;;7.85;5.40;;;;;;;25.66;nan;62408.91;5072301;28;20190;-61
2023/07/26 04:20:33;;;;;;;10.95;5.88;;;;;;;26.10;nan;62488.00;5070143;28;20273;-61
2023/07/26 04:22:59;;;;;;;8.70;5.30;;;;;;;26.81;nan;62510.97;5071720;28;20189;-62
2023/07/26 04:25:24;;;;;;;12.38;5.43;;;;;;;27.49;nan;62642.22;5071755;28;20209;-62
2023/07/26 04:27:49;;;;;;;9.32;5.25;;;;;;;28.07;nan;62739.63;5071631;28;20205;-59
2023/07/26 04:30:15;;;;;;;9.55;5.15;;;;;;;28.43;nan;63038.66;5071858;28;20640;-60
2023/07/26 04:32:41;;;;;;;9.40;5.07;;;;;;;27.92;nan;62686.22;5051877;28;20658;-63
2023/07/26 04:35:06;;;;;;;8.93;5.07;;;;;;;27.89;nan;62680.16;5052283;28;20626;-60
2023/07/26 04:37:32;;;;;;;11.43;5.45;;;;;;;27.81;nan;62602.69;5056658;28;20177;-60
2023/07/26 04:39:57;;;;;;;10.27;5.20;;;;;;;27.91;nan;62966.22;5072280;28;20177;-61
2023/07/26 04:42:23;;;;;;;9.60;5.00;;;;;;;27.79;nan;62752.75;5071228;28;20194;-62
2023/07/26 04:44:48;;;;;;;8.23;4.82;;;;;;;27.98;nan;62708.84;5071606;28;20174;-63
2023/07/26 04:47:15;;;;;;;8.63;4.95;;;;;;;28.00;nan;62721.09;5072006;28;20212;-59
2023/07/26 04:49:42;;;;;;;9.45;5.30;;;;;;;28.42;nan;62764.00;5071921;28;20166;-61
2023/07/26 04:52:07;;;;;;;13.50;5.07;;;;;;;28.75;nan;62803.94;5071792;28;20165;-62
2023/07/26 04:54:33;;;;;;;10.38;5.40;;;;;;;27.98;nan;62748.28;5072171;28;20162;-61
2023/07/26 04:56:58;;;;;;;7.50;4.53;;;;;;;28.33;nan;62753.13;5070645;28;20174;-61
2023/07/26 04:59:24;;;;;;;10.98;5.35;;;;;;;28.72;nan;62771.53;5070307;28;20182;-61
2023/07/26 05:01:49;;;;;;;8.68;5.20;;;;;;;28.89;nan;62796.31;5071037;28;20169;-60
2023/07/26 05:04:14;;;;;;;11.75;5.22;;;;;;;28.55;nan;62886.19;5071812;28;20261;-61
2023/07/26 05:06:40;;;;;;;8.27;5.32;;;;;;;28.28;nan;62700.06;5071856;28;20680;-60
2023/07/26 05:09:05;;;;;;;9.25;5.07;;;;;;;28.37;nan;62997.56;5071686;28;20227;-61
2023/07/26 05:11:31;;;;;;;13.35;5.93;;;;;;;28.62;nan;62741.09;5071448;28;20166;-61
2023/07/26 05:13:57;;;;;;;12.20;4.95;;;;;;;28.84;nan;62961.63;5071499;28;20162;-60
2023/07/26 05:16:22;;;;;;;8.82;5.20;;;;;;;29.06;nan;62812.59;5071542;28;20158;-61
2023/07/26 05:18:47;;;;;;;12.23;5.60;;;;;;;29.70;nan;62909.19;5071725;28;20219;-59
2023/07/26 05:21:13;;;;;;;9.57;5.07;;;;;;;30.37;nan;63248.84;5071333;28;20192;-60
2023/07/26 05:23:39;;;;;;;8.38;5.30;;;;;;;30.55;nan;63142.34;5071697;28;20221;-61
2023/07/26 05:26:04;;;;;;;9.23;4.88;;;;;;;30.88;nan;63106.44;5070630;28;20550;-60
2023/07/26 05:28:29;;;;;;;12.80;5.22;;;;;;;31.07;nan;63186.44;5071316;28;20704;-61
2023/07/26 05:30:56;;;;;;;9.27;5.40;;;;;;;31.01;nan;63123.47;5071433;28;20231;-60
2023/07/26 05:33:21;;;;;;;9.18;4.68;;;;;;;30.27;nan;62984.06;5071161;28;20183;-60
2023/07/26 05:35:47;;;;;;;9.02;5.35;;;;;;;30.35;nan;63061.28;5071014;28;20165;-61
2023/07/26 05:38:12;;;;;;;7.65;5.38;;;;;;;29.87;nan;63004.59;5071749;28;20601;-61
2023/07/26 05:40:38;;;;;;;10.70;5.55;;;;;;;29.25;nan;62789.06;5071676;28;20644;-60
2023/07/26 05:43:03;;;;;;;8.98;5.70;;;;;;;29.24;nan;62859.56;5071185;28;20249;-61
2023/07/26 05:45:29;;;;;;;10.60;5.15;;;;;;;29.88;nan;62963.56;5070974;28;20551;-60
2023/07/26 05:47:54;;;;;;;10.35;5.18;;;;;;;29.48;nan;63022.97;5071326;28;20588;-61
2023/07/26 05:50:19;;;;;;;9.63;5.20;;;;;;;29.56;nan;62935.25;5071231;28;20693;-61
2023/07/26 05:52:45;;;;;;;8.95;5.38;;;;;;;29.39;nan;62889.97;5071311;28;20227;-60
2023/07/26 05:55:11;;;;;;;7.80;5.03;;;;;;;29.00;nan;62887.31;5070840;28;20265;-60
2023/07/26 05:57:37;;;;;;;10.73;5.40;;;;;;;29.28;nan;62872.06;5070801;28;20177;-61
2023/07/26 06:00:03;;;;;;;10.73;5.45;;;;;;;29.10;nan;62793.50;5071168;28;20162;-61
2023/07/26 06:02:28;;;;;;;9.07;5.10;;;;;;;29.29;nan;62893.69;5070903;28;20205;-62
2023/07/26 06:04:54;;;;;;;8.00;5.25;;;;;;;29.42;nan;62914.50;5070906;28;20437;-60
2023/07/26 06:07:19;;;;;;;11.88;5.40;;;;;;;29.17;nan;62901.00;5070867;28;20173;-60
2023/07/26 06:09:44;;;;;;;8.63;5.18;;;;;;;29.33;nan;62888.34;5071063;28;20192;-60
2023/07/26 06:12:10;;;;;;;9.60;5.75;;;;;;;28.97;nan;62910.19;5070406;28;20223;-60
2023/07/26 06:14:36;;;;;;;9.00;5.22;;;;;;;29.10;nan;62872.47;5072401;28;20256;-60
2023/07/26 06:17:01;;;;;;;10.45;5.55;;;;;;;29.70;nan;62940.81;5072694;28;20547;-61
2023/07/26 06:19:27;;;;;;;9.13;5.00;;;;;;;29.46;nan;62975.91;5073188;28;20182;-60
2023/07/26 06:21:55;;;;;;;8.63;5.28;;;;;;;29.45;nan;62953.69;5074332;28;20265;-63
2023/07/26 06:24:22;;;;;;;10.50;5.20;;;;;;;29.38;nan;62862.50;5056822;28;20181;-63
2023/07/26 06:26:48;;;;;;;8.35;5.55;;;;;;;29.61;nan;62903.53;5074332;28;20235;-60
2023/07/26 06:29:13;;;;;;;7.75;4.97;;;;;;;29.55;nan;62912.47;5074409;28;20170;-62
2023/07/26 06:31:39;;;;;;;7.43;4.95;;;;;;;29.85;nan;63018.09;5074404;28;20173;-62
2023/07/26 06:34:04;;;;;;;13.02;5.55;;;;;;;29.43;nan;62994.09;5074720;28;20606;-61
2023/07/26 06:36:29;;;;;;;9.55;5.78;;;;;;;29.96;nan;62993.28;5074439;28;20158;-60
2023/07/26 06:38:55;;;;;;;7.15;4.93;;;;;;;30.02;nan;62992.25;5074099;28;20226;-62
2023/07/26 06:41:20;;;;;;;7.80;4.90;;;;;;;29.75;nan;63035.56;5074050;28;20280;-63
2023/07/26 06:43:46;;;;;;;8.88;5.70;;;;;;;29.80;nan;62968.13;5073628;28;20205;-62
2023/07/26 06:46:11;;;;;;;11.85;5.32;;;;;;;29.74;nan;63013.91;5074216;28;20181;-60
2023/07/26 06:48:37;;;;;;;8.88;5.53;;;;;;;30.00;nan;63243.66;5073633;28;20253;-62
2023/07/26 06:51:04;;;;;;;9.45;5.75;;;;;;;29.84;nan;63157.22;5073795;28;20263;-62
2023/07/26 06:53:30;;;;;;;10.02;5.93;;;;;;;30.09;nan;62998.25;5073302;28;20181;-61
2023/07/26 06:55:59;;;;;;;8.68;5.72;;;;;;;30.19;nan;63104.13;5073341;28;20565;-59
2023/07/26 06:58:25;;;;;;;9.93;5.88;;;;;;;29.94;nan;63049.56;5073166;28;20258;-61
2023/07/26 07:00:50;;;;;;;9.98;5.97;;;;;;;;;;5073357;28;20272;-61
2023/07/26 07:03:16;;;;;;;9.23;5.63;;;;;;;30.00;nan;62997.88;5073691;28;20703;-62
2023/07/26 07:05:41;;;;;;;10.68;5.82;;;;;;;30.08;nan;63020.84;5073666;28;20223;-60
2023/07/26 07:08:06;;;;;;;11.05;6.05;;;;;;;29.83;nan;63071.13;5073545;28;20207;-62
2023/07/26 07:10:32;;;;;;;10.70;6.25;;;;;;;30.22;nan;63009.97;5072658;28;20177;-60
2023/07/26 07:12:57;;;;;;;9.00;5.90;;;;;;;30.47;nan;63091.53;5073258;28;20169;-61
2023/07/26 07:15:23;;;;;;;8.57;5.75;;;;;;;30.54;nan;63040.94;5073554;28;20274;-61
2023/07/26 07:17:48;;;;;;;10.57;5.50;;;;;;;30.25;nan;62987.03;5073270;28;20184;-60
2023/07/26 07:20:14;;;;;;;8.43;5.47;;;;;;;30.39;nan;63319.13;5073436;28;20554;-61
2023/07/26 07:22:39;;;;;;;10.88;5.85;;;;;;;30.09;nan;63129.53;5073513;28;20193;-60
2023/07/26 07:25:05;;;;;;;10.43;5.55;;;;;;;31.06;nan;63127.16;5072967;28;20184;-61
2023/07/26 07:27:30;;;;;;;14.48;6.50;;;;;;;30.88;nan;63229.94;5072990;28;20525;-62
2023/07/26 07:29:56;;;;;;;9.07;5.70;;;;;;;31.30;nan;63201.19;5072681;28;20263;-61
2023/07/26 07:32:21;;;;;;;9.27;6.10;;;;;;;31.45;nan;63345.31;5072874;28;20264;-61
2023/07/26 07:34:47;;;;;;;10.18;6.55;;;;;;;31.73;nan;63316.84;5073247;28;20180;-60
2023/07/26 07:37:13;;;;;;;10.40;5.78;;;;;;;32.18;nan;63392.03;5073132;28;20491;-63
2023/07/26 07:39:39;;;;;;;9.02;5.72;;;;;;;32.46;nan;63471.41;5073063;28;20169;-59
2023/07/26 07:42:05;;;;;;;10.20;5.88;;;;;;;32.32;nan;63387.00;5073190;28;20185;-62
2023/07/26 07:44:30;;;;;;;9.23;5.43;;;;;;;32.66;nan;63472.78;5073150;28;20182;-59
2023/07/26 07:46:56;;;;;;;10.20;5.93;;;;;;;32.80;nan;63576.94;5073006;28;20193;-61
2023/07/26 07:49:22;;;;;;;10.93;5.50;;;;;;;33.04;nan;63526.72;5072851;28;20184;-61
2023/07/26 07:51:48;;;;;;;9.25;5.55;;;;;;;33.06;nan;63540.22;5072739;28;20169;-60
2023/07/26 07:54:13;;;;;;;12.55;5.60;;;;;;;33.49;nan;63596.72;5072983;28;20173;-60
2023/07/26 07:56:39;;;;;;;10.80;6.25;;;;;;;33.67;nan;63679.16;5072837;28;20161;-61
2023/07/26 07:59:05;;;;;;;11.25;5.53;;;;;;;34.04;nan;63721.44;5073081;28;20173;-62
2023/07/26 08:01:30;;;;;;;8.73;5.85;;;;;;;34.14;nan;63777.56;5072948;28;20193;-61
2023/07/26 08:03:58;;;;;;;12.95;5.70;;;;;;;34.38;nan;63746.41;5072499;28;20668;-63
2023/07/26 08:06:24;;;;;;;8.45;5.40;;;;;;;34.33;nan;63698.13;5072063;28;20307;-62
2023/07/26 08:08:49;;;;;;;11.25;5.93;;;;;;;34.58;nan;64021.94;5072867;28;20264;-61
2023/07/26 08:11:15;;;;;;;10.00;5.70;;;;;;;34.77;nan;63852.75;5071835;28;20816;-62
2023/07/26 08:13:40;;;;;;;11.20;5.60;;;;;;;34.05;nan;63801.63;5072241;28;20218;-61
2023/07/26 08:16:06;;;;;;;10.15;5.45;;;;;;;33.87;nan;63664.59;5071949;28;20224;-61
2023/07/26 08:18:31;;;;;;;8.85;5.95;;;;;;;33.50;nan;63606.44;5072226;28;20215;-59
2023/07/26 08:20:56;;;;;;;11.98;5.95;;;;;;;33.55;nan;63632.84;5072451;28;20223;-61
2023/07/26 08:23:22;;;;;;;9.98;5.95;;;;;;;33.80;nan;63677.72;5072191;28;20702;-61
2023/07/26 08:25:47;;;;;;;9.75;6.10;;;;;;;33.67;nan;63606.97;5071738;28;20166;-59
2023/07/26 08:28:13;;;;;;;8.80;5.65;;;;;;;33.79;nan;63756.16;5071991;28;20169;-61
2023/07/26 08:30:38;;;;;;;9.50;5.65;;;;;;;33.87;nan;63850.34;5072322;28;20209;-61
2023/07/26 08:33:03;;;;;;;9.45;5.57;;;;;;;33.88;nan;63655.16;5072096;28;20267;-64
2023/07/26 08:35:29;;;;;;;10.00;5.75;;;;;;;33.51;nan;63572.53;5071154;28;20711;-60
2023/07/26 08:37:55;;;;;;;11.40;5.70;;;;;;;33.07;nan;63546.06;5071984;28;20169;-61
2023/07/26 08:40:20;;;;;;;8.50;5.63;;;;;;;32.88;nan;63487.59;5071623;28;20260;-63
2023/07/26 08:42:46;;;;;;;8.82;5.68;;;;;;;32.91;nan;63491.06;5053306;28;20200;-60
2023/07/26 08:45:12;;;;;;;11.60;6.60;;;;;;;33.26;nan;63812.50;5072027;28;20662;-61
2023/07/26 08:47:38;;;;;;;9.70;6.05;;;;;;;33.40;nan;63652.59;5071756;28;20261;-61
2023/07/26 08:50:05;;;;;;;10.98;5.78;;;;;;;33.38;nan;63660.91;5071548;28;20252;-62
2023/07/26 08:52:31;;;;;;;10.60;6.28;;;;;;;33.43;nan;63589.81;5071747;28;20173;-60
2023/07/26 08:54:58;;;;;;;9.18;5.90;;;;;;;33.73;nan;63682.88;5071011;28;20177;-61
2023/07/26 08:57:24;;;;;;;11.52;6.00;;;;;;;33.26;nan;63656.09;5071835;28;20184;-61
2023/07/26 08:59:49;;;;;;;8.70;5.88;;;;;;;33.47;nan;63729.66;5071589;28;20543;-60
2023/07/26 09:02:16;;;;;;;9.18;5.82;;;;;;;33.72;nan;63607.44;5071598;28;20196;-62
2023/07/26 09:04:41;;;;;;;9.88;5.72;;;;;;;33.86;nan;63668.75;5071441;28;20225;-61
2023/07/26 09:07:07;;;;;;;12.55;6.40;;;;;;;33.67;nan;63654.69;5071683;28;20339;-60
2023/07/26 09:09:34;;;;;;;11.57;6.40;;;;;;;34.01;nan;63791.69;5071595;28;20177;-61
2023/07/26 09:12:00;;;;;;;9.73;5.95;;;;;;;33.73;nan;63608.59;5071409;28;20170;-61
2023/07/26 09:14:27;;;;;;;13.70;6.57;;;;;;;33.99;nan;63856.28;5071255;28;20227;-60
2023/07/26 09:17:01;;;;;;;11.88;6.30;;;;;;;33.91;nan;63628.84;5070950;28;20207;-60
2023/07/26 09:19:32;;;;;;;16.17;6.15;;;;;;;33.65;nan;63676.84;5070979;28;20169;-61
2023/07/26 09:22:03;;;;;;;9.02;5.72;;;;;;;34.26;nan;63743.72;5070880;28;20166;-59
2023/07/26 09:24:37;;;;;;;9.75;6.28;;;;;;;34.21;nan;63729.38;5072133;28;20223;-61
2023/07/26 09:27:06;;;;;;;9.43;6.05;;;;;;;34.21;nan;63763.88;5070935;28;20194;-62
2023/07/26 09:29:32;;;;;;;10.75;6.90;;;;;;;34.46;nan;63808.78;5053413;28;20173;-60
2023/07/26 09:31:57;;;;;;;10.93;6.32;;;;;;;34.42;nan;63756.94;5071531;28;20617;-61
2023/07/26 09:34:22;;;;;;;10.65;6.50;;;;;;;34.32;nan;63832.38;5071009;28;20192;-61
2023/07/26 09:36:50;;;;;;;11.23;6.38;;;;;;;34.48;nan;63726.13;5071769;28;20181;-61
2023/07/26 09:39:18;;;;;;;8.93;6.03;;;;;;;34.73;nan;63837.44;5071409;28;20166;-63
2023/07/26 09:41:47;;;;;;;13.13;6.45;;;;;;;34.95;nan;63825.78;5071197;28;20197;-65
2023/07/26 09:44:21;;;;;;;10.48;6.07;;;;;;;34.97;nan;63859.97;5071489;28;20667;-62
2023/07/26 09:46:53;;;;;;;11.18;6.13;;;;;;;34.65;nan;63832.88;5072381;28;20169;-60
2023/07/26 09:49:21;;;;;;;9.57;6.10;;;;;;;34.73;nan;63826.81;5075254;28;20260;-61
2023/07/26 09:51:48;;;;;;;12.70;6.00;;;;;;;34.96;nan;63829.56;5075226;28;20224;-62
2023/07/26 09:54:14;;;;;;;11.50;6.55;;;;;;;35.06;nan;63943.69;5075339;28;20636;-62
2023/07/26 09:56:43;;;;;;;11.10;6.13;;;;;;;35.31;nan;63922.22;5074806;28;20265;-61
2023/07/26 09:59:10;;;;;;;10.00;6.20;;;;;;;35.58;nan;63984.91;5075198;28;20169;-62
2023/07/26 10:01:40;;;;;;;8.85;6.05;;;;;;;35.59;nan;64050.50;5074836;28;20188;-62
2023/07/26 10:04:11;;;;;;;9.48;6.05;;;;;;;34.95;nan;63958.66;5074387;28;20233;-64
2023/07/26 10:06:38;;;;;;;12.98;6.45;;;;;;;34.66;nan;63834.06;5073772;28;20213;-61
2023/07/26 10:09:03;;;;;;;12.80;6.35;;;;;;;34.88;nan;63931.94;5075190;28;20234;-61
2023/07/26 10:11:30;;;;;;;9.05;5.82;;;;;;;35.39;nan;64001.25;5075032;28;20174;-61
2023/07/26 10:13:59;;;;;;;11.55;6.13;;;;;;;35.54;nan;63980.84;5075208;28;20173;-62
2023/07/26 10:16:25;;;;;;;9.52;5.80;;;;;;;35.60;nan;63995.81;5075394;28;20165;-61
2023/07/26 10:18:53;;;;;;;10.88;5.88;;;;;;;35.75;nan;64167.59;5074458;28;20173;-62
2023/07/26 10:21:20;;;;;;;7.90;5.53;;;;;;;35.93;nan;64088.91;5075019;28;20174;-62
2023/07/26 10:23:48;;;;;;;10.05;6.13;;;;;;;36.25;nan;64134.13;5075065;28;20204;-60
2023/07/26 10:26:15;;;;;;;10.65;6.45;;;;;;;36.41;nan;64154.81;5074958;28;20227;-62
2023/07/26 10:28:41;;;;;;;9.65;5.80;;;;;;;36.23;nan;64187.72;5074065;28;20678;-61
2023/07/26 10:31:07;;;;;;;11.95;6.00;;;;;;;36.27;nan;64109.81;5074723;28;20708;-66
2023/07/26 10:33:33;;;;;;;10.25;5.85;;;;;;;36.49;nan;64220.66;5073916;28;20261;-66
2023/07/26 10:36:04;;;;;;;11.10;5.97;;;;;;;36.63;nan;64263.66;5072211;28;20210;-66
2023/07/26 10:38:29;;;;;;;9.93;5.85;;;;;;;36.80;nan;64216.22;5074128;28;20258;-68
2023/07/26 10:40:55;;;;;;;10.40;6.35;;;;;;;36.81;nan;64459.44;5074272;28;20197;-67
2023/07/26 10:43:20;;;;;;;11.65;6.53;;;;;;;36.58;nan;64201.81;5074005;28;20201;-67
2023/07/26 10:45:53;;;;;;;9.38;5.63;;;;;;;36.44;nan;64214.28;5074458;28;20157;-67
2023/07/26 10:48:37;;;;;;;12.18;6.47;;;;;;;36.95;nan;64254.44;5074577;28;20252;-67
2023/07/26 10:51:21;;;;;;;13.90;6.07;;;;;;;36.97;nan;64326.69;4524816;28;20803;-67
2023/07/26 10:53:46;;;;;;;12.02;6.60;;;;;;;36.90;nan;64280.63;4662235;28;20889;-67
2023/07/26 10:56:19;;;;;;;9.95;6.07;;;;;;;37.04;nan;64372.19;4405828;28;20849;-66
2023/07/26 10:58:51;;;;;;;9.18;6.22;;;;;;;37.39;nan;64367.09;4381521;28;20848;-66
2023/07/26 11:01:37;;;;;;;9.27;6.10;;;;;;;37.66;nan;64424.72;4913096;28;20245;-67
2023/07/26 11:04:09;;;;;;;11.95;6.20;;;;;;;37.33;nan;64039.31;5042310;28;20216;-66
2023/07/26 11:06:56;;;;;;;11.48;5.80;;;;;;;37.54;nan;64365.94;5073730;28;20610;-68
2023/07/26 11:09:26;;;;;;;10.93;5.90;;;;;;;37.24;nan;64386.97;5074469;28;20223;-66
2023/07/26 11:11:58;;;;;;;16.98;6.15;;;;;;;37.37;nan;64564.91;5073506;28;20526;-67
2023/07/26 11:14:25;;;;;;;11.80;6.47;;;;;;;37.39;nan;64441.25;5073641;28;20173;-66
2023/07/26 11:16:52;;;;;;;10.88;6.20;;;;;;;37.35;nan;64330.41;5074479;28;20181;-67
2023/07/26 11:19:17;;;;;;;12.20;6.15;;;;;;;37.50;nan;64448.75;5073981;28;20166;-67
2023/07/26 11:21:43;;;;;;;9.75;6.00;;;;;;;37.69;nan;64459.69;5074210;28;20180;-67
2023/07/26 11:24:09;;;;;;;10.68;5.75;;;;;;;37.87;nan;64555.50;5089383;28;20362;-65
2023/07/26 11:26:45;;;;;;;11.45;6.35;;;;;;;38.11;nan;64500.16;5073697;28;20648;-69
2023/07/26 11:29:12;;;;;;;9.32;5.80;;;;;;;38.24;nan;64505.25;5055652;28;20261;-67
2023/07/26 11:31:38;;;;;;;10.88;6.22;;;;;;;38.14;nan;64517.59;5073203;28;20710;-67
2023/07/26 11:34:17;;;;;;;15.05;6.00;;;;;;;37.86;nan;64412.78;5073677;28;20553;-67
2023/07/26 11:36:43;;;;;;;10.32;5.82;;;;;;;37.74;nan;64649.75;5073490;28;20169;-65
2023/07/26 11:39:24;;;;;;;9.98;5.88;;;;;;;38.10;nan;64593.09;5055637;28;20178;-67
2023/07/26 11:41:50;;;;;;;12.18;5.95;;;;;;;38.09;nan;64514.44;5073109;28;20205;-66
2023/07/26 11:44:16;;;;;;;14.60;6.22;;;;;;;38.31;nan;64585.56;5073286;28;20192;-67
2023/07/26 11:46:43;;;;;;;8.02;5.38;;;;;;;;;;5055385;28;20173;-66